createdAt,value
2019-05-25T00:00:22.267Z,80.67
2019-05-25T00:02:54.791Z,80.13
2019-05-25T00:05:27.645Z,80.69
2019-05-25T00:08:00.323Z,81.06
2019-05-25T00:10:32.862Z,80.40
2019-05-25T00:13:05.339Z,80.40
2019-05-25T00:15:37.808Z,80.69
2019-05-25T00:18:10.435Z,80.52
2019-05-25T00:20:43.010Z,80.46
2019-05-25T00:23:17.311Z,80.96
2019-05-25T00:25:50.276Z,81.02
2019-05-25T00:28:22.772Z,81.78
2019-05-25T00:30:55.297Z,81.78
2019-05-25T00:33:27.877Z,82.33
2019-05-25T00:36:00.471Z,82.33
2019-05-25T00:38:33.374Z,82.71
2019-05-25T00:41:05.577Z,83.29
2019-05-25T00:43:44.283Z,83.30
2019-05-25T00:46:16.248Z,83.99
2019-05-25T00:48:49.654Z,83.99
2019-05-25T00:51:22.366Z,83.57
2019-05-25T00:53:54.823Z,84.80
2019-05-25T00:56:29.164Z,84.80
2019-05-25T00:59:01.626Z,85.50
2019-05-25T01:01:34.286Z,85.82
2019-05-25T01:04:06.890Z,86.02
2019-05-25T01:06:39.785Z,86.02
2019-05-25T01:09:12.320Z,86.36
2019-05-25T01:11:46.256Z,86.32
2019-05-25T01:14:18.643Z,86.54
2019-05-25T01:16:51.370Z,86.97
2019-05-25T01:19:24.054Z,87.17
2019-05-25T01:21:56.708Z,87.17
2019-05-25T01:24:43.420Z,87.02
2019-05-25T01:27:03.606Z,87.29
2019-05-25T01:29:36.325Z,87.44
2019-05-25T01:32:09.309Z,87.64
2019-05-25T01:34:41.759Z,87.52
2019-05-25T01:37:17.297Z,87.52
2019-05-25T01:39:49.701Z,86.96
2019-05-25T01:42:22.582Z,86.96
2019-05-25T01:44:55.298Z,86.79
2019-05-25T01:47:28.367Z,87.03
2019-05-25T01:50:00.549Z,86.88
2019-05-25T01:52:34.298Z,87.23
2019-05-25T01:55:09.293Z,87.08
2019-05-25T01:57:41.835Z,86.96
2019-05-25T02:00:14.220Z,86.96
2019-05-25T02:02:46.879Z,87.03
2019-05-25T02:05:19.779Z,87.03
2019-05-25T02:07:52.818Z,86.64
2019-05-25T02:10:26.864Z,86.50
2019-05-25T02:12:59.430Z,87.55
2019-05-25T02:15:32.283Z,87.82
2019-05-25T02:18:04.786Z,87.93
2019-05-25T02:20:38.870Z,87.93
2019-05-25T02:23:11.509Z,88.07
2019-05-25T02:25:43.840Z,88.18
2019-05-25T02:28:17.195Z,88.05
2019-05-25T02:30:50.766Z,87.81
2019-05-25T02:33:23.331Z,88.03
2019-05-25T02:35:55.715Z,87.50
2019-05-25T02:38:28.294Z,87.50
2019-05-25T02:41:01.345Z,88.06
2019-05-25T02:43:33.807Z,88.31
2019-05-25T02:46:06.601Z,88.31
2019-05-25T02:48:39.282Z,88.10
2019-05-25T02:51:14.974Z,87.53
2019-05-25T02:53:47.647Z,87.53
2019-05-25T02:56:20.289Z,88.26
2019-05-25T02:58:53.329Z,88.09
2019-05-25T03:01:26.129Z,88.00
2019-05-25T03:03:58.661Z,88.00
2019-05-25T03:06:31.565Z,88.46
2019-05-25T03:09:07.300Z,88.29
2019-05-25T03:11:41.797Z,87.78
2019-05-25T03:14:19.300Z,87.78
2019-05-25T03:16:51.817Z,87.92
2019-05-25T03:19:24.389Z,87.92
2019-05-25T03:21:56.726Z,88.76
2019-05-25T03:24:29.341Z,88.76
2019-05-25T03:27:02.294Z,88.95
2019-05-25T03:29:35.298Z,88.97
2019-05-25T03:32:08.027Z,88.97
2019-05-25T03:34:42.410Z,88.27
2019-05-25T03:37:15.362Z,87.84
2019-05-25T03:39:48.794Z,88.84
2019-05-25T03:42:21.495Z,88.84
2019-05-25T03:44:55.429Z,89.71
2019-05-25T03:47:28.291Z,89.66
2019-05-25T03:50:01.826Z,89.34
2019-05-25T03:52:34.369Z,89.34
2019-05-25T03:55:11.282Z,89.42
2019-05-25T03:57:43.883Z,88.06
2019-05-25T04:00:21.793Z,88.06
2019-05-25T04:02:54.302Z,88.80
2019-05-25T04:05:26.733Z,87.66
2019-05-25T04:07:59.293Z,87.66
2019-05-25T04:10:33.521Z,87.56
2019-05-25T04:13:06.391Z,87.01
2019-05-25T04:15:41.867Z,85.25
2019-05-25T04:18:17.537Z,86.17
2019-05-25T04:20:51.830Z,84.77
2019-05-25T04:23:24.285Z,85.33
2019-05-25T04:25:56.867Z,85.44
2019-05-25T04:28:29.333Z,85.44
2019-05-25T04:31:03.294Z,80.05
2019-05-25T04:33:35.630Z,83.70
2019-05-25T04:36:39.847Z,83.70
2019-05-25T04:39:12.298Z,84.49
2019-05-25T04:41:44.605Z,85.48
2019-05-25T04:44:18.295Z,85.48
2019-05-25T04:46:52.395Z,85.73
2019-05-25T04:49:24.734Z,85.59
2019-05-25T04:51:57.339Z,85.59
2019-05-25T04:57:01.347Z,84.78
2019-05-25T04:59:33.732Z,84.70
2019-05-25T05:02:06.432Z,83.74
2019-05-25T05:04:40.371Z,83.62
2019-05-25T05:07:12.685Z,82.51
2019-05-25T05:09:45.280Z,82.51
2019-05-25T05:12:18.405Z,81.90
2019-05-25T05:14:50.803Z,80.73
2019-05-25T05:17:23.286Z,79.27
2019-05-25T05:19:55.604Z,78.66
2019-05-25T05:22:28.283Z,78.66
2019-05-25T05:25:00.657Z,78.05
2019-05-25T05:27:33.309Z,78.05
2019-05-25T05:30:08.970Z,78.43
2019-05-25T05:32:41.299Z,77.30
2019-05-25T05:35:14.516Z,77.21
2019-05-25T05:37:49.707Z,77.21
2019-05-25T05:40:22.317Z,77.31
2019-05-25T05:42:59.271Z,77.96
2019-05-25T05:45:35.294Z,77.49
2019-05-25T05:48:10.289Z,77.26
2019-05-25T05:50:43.298Z,77.00
2019-05-25T05:53:15.871Z,76.71
2019-05-25T05:55:48.661Z,76.19
2019-05-25T05:58:21.294Z,76.19
2019-05-25T06:00:53.598Z,76.88
2019-05-25T06:03:26.018Z,76.88
2019-05-25T06:05:58.485Z,77.11
2019-05-25T06:08:30.971Z,77.25
2019-05-25T06:11:03.362Z,77.65
2019-05-25T06:13:35.734Z,79.27
2019-05-25T06:16:08.281Z,79.27
2019-05-25T06:18:40.727Z,79.45
2019-05-25T06:21:13.334Z,79.45
2019-05-25T06:23:45.690Z,78.79
2019-05-25T06:26:19.048Z,77.09
2019-05-25T06:28:51.458Z,77.09
2019-05-25T06:31:23.795Z,76.45
2019-05-25T06:33:56.287Z,77.18
2019-05-25T06:36:28.754Z,75.59
2019-05-25T06:39:01.393Z,75.59
2019-05-25T06:41:34.290Z,76.11
2019-05-25T06:44:07.593Z,75.04
2019-05-25T06:46:39.909Z,75.04
2019-05-25T06:49:12.362Z,75.40
2019-05-25T06:51:45.436Z,74.15
2019-05-25T06:54:21.291Z,73.99
2019-05-25T06:56:52.897Z,72.06
2019-05-25T06:59:25.306Z,72.06
2019-05-25T07:01:56.934Z,71.55
2019-05-25T07:04:29.307Z,71.55
2019-05-25T07:07:01.755Z,69.62
2019-05-25T07:09:34.500Z,69.62
2019-05-25T07:12:07.338Z,68.79
2019-05-25T07:14:39.856Z,67.55
2019-05-25T07:17:12.344Z,66.76
2019-05-25T07:19:44.756Z,66.62
2019-05-25T07:22:17.353Z,66.62
2019-05-25T07:24:49.673Z,63.58
2019-05-25T07:27:22.294Z,63.58
2019-05-25T07:29:54.639Z,62.38
2019-05-25T07:32:27.280Z,61.00
2019-05-25T07:34:59.584Z,59.05
2019-05-25T07:37:32.291Z,59.05
2019-05-25T07:40:07.292Z,53.88
2019-05-25T07:42:39.783Z,53.37
2019-05-25T07:45:12.799Z,53.37
2019-05-25T07:47:45.299Z,53.81
2019-05-25T07:50:19.768Z,53.14
2019-05-25T07:52:52.292Z,54.09
2019-05-25T07:55:24.757Z,54.29
2019-05-25T07:57:57.292Z,54.29
2019-05-25T08:00:29.977Z,53.83
2019-05-25T08:03:02.358Z,53.83
2019-05-25T08:05:34.764Z,53.05
2019-05-25T08:08:08.703Z,53.05
2019-05-25T08:10:41.289Z,52.41
2019-05-25T08:13:13.272Z,50.40
2019-05-25T08:15:45.893Z,50.76
2019-05-25T08:18:19.465Z,51.47
2019-05-25T08:20:52.810Z,50.78
2019-05-25T08:23:25.314Z,51.85
2019-05-25T08:25:57.665Z,50.01
2019-05-25T08:28:33.158Z,50.01
2019-05-25T08:31:04.557Z,49.33
2019-05-25T08:33:37.280Z,49.15
2019-05-25T08:36:09.630Z,49.12
2019-05-25T08:38:42.055Z,49.12
2019-05-25T08:41:14.462Z,49.26
2019-05-25T08:43:46.802Z,48.65
2019-05-25T08:46:19.252Z,48.94
2019-05-25T08:48:51.596Z,48.59
2019-05-25T08:51:24.249Z,45.58
2019-05-25T08:53:56.833Z,46.08
2019-05-25T08:56:29.567Z,46.08
2019-05-25T08:59:02.064Z,45.35
2019-05-25T09:01:34.678Z,45.18
2019-05-25T09:04:07.296Z,44.52
2019-05-25T09:06:39.820Z,44.26
2019-05-25T09:09:12.311Z,43.88
2019-05-25T09:11:44.362Z,43.92
2019-05-25T09:14:16.761Z,44.98
2019-05-25T09:16:50.411Z,44.98
2019-05-25T09:19:23.041Z,45.93
2019-05-25T09:22:02.640Z,45.93
2019-05-25T09:24:29.683Z,45.88
2019-05-25T09:27:02.295Z,44.94
2019-05-25T09:29:35.034Z,44.77
2019-05-25T09:32:07.759Z,46.14
2019-05-25T09:34:43.324Z,45.65
2019-05-25T09:37:16.297Z,44.65
2019-05-25T09:39:50.849Z,44.65
2019-05-25T09:42:52.445Z,43.66
2019-05-25T09:45:25.038Z,43.02
2019-05-25T09:47:59.298Z,43.53
2019-05-25T09:50:31.689Z,41.86
2019-05-25T09:53:04.298Z,41.86
2019-05-25T09:55:36.678Z,43.48
2019-05-25T09:58:09.298Z,43.48
2019-05-25T10:00:41.869Z,46.32
2019-05-25T10:03:14.444Z,46.32
2019-05-25T10:05:46.836Z,44.81
2019-05-25T10:08:20.378Z,44.72
2019-05-25T10:10:52.781Z,43.47
2019-05-25T10:13:25.289Z,43.47
2019-05-25T10:15:58.983Z,42.42
2019-05-25T10:18:31.457Z,43.03
2019-05-25T10:21:03.910Z,42.60
2019-05-25T10:23:36.731Z,42.73
2019-05-25T10:26:09.298Z,43.50
2019-05-25T10:28:41.612Z,44.58
2019-05-25T10:31:14.010Z,44.58
2019-05-25T10:33:46.665Z,45.10
2019-05-25T10:39:24.011Z,46.46
2019-05-25T10:41:56.491Z,47.28
2019-05-25T10:44:30.567Z,47.64
2019-05-25T10:47:03.286Z,48.71
2019-05-25T10:49:38.260Z,49.25
2019-05-25T10:52:10.537Z,49.36
2019-05-25T10:54:43.317Z,49.69
2019-05-25T10:57:15.851Z,53.40
2019-05-25T10:59:52.973Z,53.40
2019-05-25T11:02:22.566Z,55.24
2019-05-25T11:04:55.299Z,56.24
2019-05-25T11:07:27.861Z,56.18
2019-05-25T11:12:42.294Z,57.67
2019-05-25T11:15:15.572Z,59.71
2019-05-25T11:18:41.781Z,58.90
2019-05-25T11:21:13.363Z,58.30
2019-05-25T11:23:47.729Z,58.86
2019-05-25T11:26:20.294Z,58.86
2019-05-25T11:28:54.310Z,59.55
2019-05-25T11:31:27.678Z,56.55
2019-05-25T11:34:00.533Z,56.55
2019-05-25T11:36:33.104Z,52.62
2019-05-25T11:39:07.520Z,55.22
2019-05-25T11:41:39.823Z,64.93
2019-05-25T11:44:12.524Z,77.71
2019-05-25T11:46:45.297Z,94.42
2019-05-25T11:49:23.128Z,77.94
2019-05-25T11:52:20.493Z,77.94
2019-05-25T11:55:12.500Z,66.48
2019-05-25T12:01:59.810Z,60.19
2019-05-25T12:04:34.292Z,45.28
2019-05-25T12:07:07.053Z,38.28
2019-05-25T12:09:43.314Z,38.28
2019-05-25T12:12:23.496Z,36.37
2019-05-25T12:16:00.895Z,36.37
2019-05-25T12:18:41.279Z,30.07
2019-05-25T12:21:15.529Z,27.87
2019-05-25T12:23:49.772Z,27.87
2019-05-25T12:26:23.415Z,28.31
2019-05-25T12:28:55.355Z,29.27
2019-05-25T12:31:31.051Z,27.24
2019-05-25T12:34:21.698Z,27.24
2019-05-25T12:36:54.144Z,27.14
2019-05-25T12:40:31.034Z,31.79
2019-05-25T12:43:02.599Z,29.62
2019-05-25T12:45:36.846Z,30.60
2019-05-25T12:48:09.387Z,31.79
2019-05-25T12:50:41.698Z,31.29
2019-05-25T12:53:14.351Z,26.83
2019-05-25T12:55:46.667Z,26.41
2019-05-25T12:58:19.338Z,26.41
2019-05-25T13:00:56.506Z,24.39
2019-05-25T13:03:29.865Z,25.10
2019-05-25T13:06:01.596Z,25.83
2019-05-25T13:08:34.031Z,23.86
2019-05-25T13:11:09.573Z,24.67
2019-05-25T13:13:40.701Z,22.44
2019-05-25T13:16:14.774Z,22.44
2019-05-25T13:18:49.057Z,20.21
2019-05-25T13:21:22.303Z,22.56
2019-05-25T13:23:54.854Z,22.01
2019-05-25T13:26:27.315Z,22.01
2019-05-25T13:28:59.367Z,19.82
2019-05-25T13:31:30.727Z,21.01
2019-05-25T13:34:03.285Z,22.77
2019-05-25T13:36:37.658Z,24.44
2019-05-25T13:39:11.330Z,23.80
2019-05-25T13:41:43.517Z,24.83
2019-05-25T13:44:15.871Z,25.46
2019-05-25T13:46:48.485Z,27.31
2019-05-25T13:49:22.347Z,28.43
2019-05-25T13:51:54.982Z,28.26
2019-05-25T13:54:27.346Z,28.26
2019-05-25T13:57:00.040Z,28.09
2019-05-25T13:59:34.431Z,29.77
2019-05-25T14:02:07.062Z,29.77
2019-05-25T14:04:39.778Z,30.77
2019-05-25T14:07:12.688Z,31.04
2019-05-25T14:09:45.305Z,30.28
2019-05-25T14:12:17.642Z,36.49
2019-05-25T14:16:17.882Z,35.98
2019-05-25T14:18:50.376Z,37.97
2019-05-25T14:21:22.879Z,37.66
2019-05-25T14:23:55.434Z,37.66
2019-05-25T14:26:27.845Z,36.68
2019-05-25T14:29:00.592Z,37.54
2019-05-25T14:31:45.101Z,38.25
2019-05-25T14:34:08.521Z,39.71
2019-05-25T15:22:38.052Z,100.00
2019-05-25T15:25:13.012Z,100.00
2019-05-25T15:27:45.573Z,100.00
2019-05-25T15:30:19.156Z,100.00
2019-05-25T15:32:53.887Z,100.00
2019-05-25T15:35:27.106Z,100.00
2019-05-25T15:38:00.211Z,100.00
2019-05-25T15:40:32.962Z,100.00
2019-05-25T15:43:06.028Z,100.00
2019-05-25T15:45:38.539Z,100.00
2019-05-25T15:48:11.695Z,100.00
2019-05-25T15:50:54.441Z,100.00
2019-05-25T15:53:27.323Z,100.00
2019-05-25T15:56:01.553Z,100.00
2019-05-25T15:58:35.831Z,100.00
2019-05-25T16:01:08.922Z,100.00
2019-05-25T16:03:42.192Z,100.00
2019-05-25T16:06:15.200Z,100.00
2019-05-25T16:08:48.482Z,100.00
2019-05-25T16:11:20.181Z,100.00
2019-05-25T16:13:52.747Z,100.00
2019-05-25T16:16:29.645Z,100.00
2019-05-25T16:18:58.668Z,100.00
2019-05-25T16:21:32.021Z,100.00
2019-05-25T16:24:08.038Z,100.00
2019-05-25T16:26:46.157Z,100.00
2019-05-25T16:29:12.611Z,100.00
2019-05-25T16:31:45.341Z,100.00
2019-05-25T16:34:17.233Z,100.00
2019-05-25T16:40:00.358Z,100.00
2019-05-25T16:42:32.892Z,100.00
2019-05-25T16:45:07.313Z,100.00
2019-05-25T16:47:39.724Z,100.00
2019-05-25T16:50:14.914Z,100.00
2019-05-25T16:52:49.699Z,100.00
2019-05-25T16:55:24.035Z,100.00
2019-05-25T16:57:56.524Z,100.00
2019-05-25T17:00:31.301Z,100.00
2019-05-25T17:03:03.810Z,100.00
2019-05-25T17:05:36.395Z,100.00
2019-05-25T17:08:08.054Z,100.00
2019-05-25T17:10:41.437Z,100.00
2019-05-25T17:13:14.303Z,100.00
2019-05-25T17:15:48.513Z,100.00
2019-05-25T17:18:22.336Z,100.00
2019-05-25T17:20:59.853Z,100.00
2019-05-25T17:23:36.370Z,100.00
2019-05-25T17:26:10.070Z,100.00
2019-05-25T17:28:43.465Z,100.00
2019-05-25T17:31:19.346Z,100.00
2019-05-25T17:33:52.555Z,100.00
2019-05-25T17:36:25.319Z,100.00
2019-05-25T17:38:58.010Z,100.00
2019-05-25T17:41:30.958Z,100.00
2019-05-25T17:44:03.911Z,100.00
2019-05-25T17:46:36.665Z,100.00
2019-05-25T17:49:09.483Z,100.00
2019-05-25T17:51:42.302Z,100.00
2019-05-25T17:54:14.861Z,100.00
2019-05-25T17:56:47.374Z,100.00
2019-05-25T17:59:21.705Z,100.00
2019-05-25T18:01:55.357Z,100.00
2019-05-25T18:04:28.085Z,100.00
2019-05-25T18:07:00.718Z,100.00
2019-05-25T18:09:33.303Z,100.00
2019-05-25T18:12:06.385Z,100.00
2019-05-25T18:14:39.039Z,100.00
2019-05-25T18:17:11.715Z,100.00
2019-05-25T18:19:46.316Z,100.00
2019-05-25T18:22:18.869Z,100.00
2019-05-25T18:27:35.732Z,100.00
2019-05-25T18:30:11.637Z,100.00
2019-05-25T18:32:44.308Z,100.00
2019-05-25T18:35:17.067Z,100.00
2019-05-25T18:37:49.746Z,100.00
2019-05-25T18:40:22.709Z,100.00
2019-05-25T18:42:55.301Z,100.00
2019-05-25T18:45:28.298Z,100.00
2019-05-25T18:48:00.618Z,100.00
2019-05-25T18:50:33.299Z,100.00
2019-05-25T18:53:05.940Z,100.00
2019-05-25T18:55:37.759Z,100.00
2019-05-25T18:58:12.977Z,100.00
2019-05-25T19:00:45.455Z,100.00
2019-05-25T19:03:18.292Z,100.00
2019-05-25T19:05:50.726Z,100.00
2019-05-25T19:11:10.495Z,100.00
2019-05-25T19:13:43.295Z,100.00
2019-05-25T19:16:15.661Z,100.00
2019-05-25T19:18:47.588Z,100.00
2019-05-25T19:21:19.266Z,100.00
2019-05-25T19:23:51.765Z,100.00
2019-05-25T19:26:25.448Z,100.00
2019-05-25T19:28:58.309Z,100.00
2019-05-25T19:31:30.818Z,100.00
2019-05-25T19:34:03.686Z,100.00
2019-05-25T19:36:36.652Z,100.00
2019-05-25T19:39:10.677Z,100.00
2019-05-25T19:41:43.386Z,100.00
2019-05-25T19:44:16.289Z,100.00
2019-05-25T19:46:49.018Z,100.00
2019-05-25T19:49:21.633Z,100.00
2019-05-25T19:51:55.529Z,100.00
2019-05-25T19:54:28.567Z,100.00
2019-05-25T19:57:01.335Z,100.00
2019-05-25T19:59:33.829Z,100.00
2019-05-25T20:02:06.808Z,100.00
2019-05-25T20:04:40.970Z,100.00
2019-05-25T20:07:16.629Z,100.00
2019-05-25T20:09:49.806Z,100.00
2019-05-25T20:12:22.340Z,100.00
2019-05-25T20:14:55.496Z,100.00
2019-05-25T20:17:28.144Z,100.00
2019-05-25T20:20:00.819Z,100.00
2019-05-25T20:22:33.475Z,100.00
2019-05-25T20:25:10.056Z,100.00
2019-05-25T20:27:42.582Z,100.00
2019-05-25T20:30:15.313Z,100.00
2019-05-25T20:32:47.827Z,100.00
2019-05-25T20:35:32.250Z,100.00
2019-05-25T20:37:55.628Z,100.00
2019-05-25T20:40:28.250Z,100.00
2019-05-25T20:43:00.717Z,100.00
2019-05-25T20:47:43.642Z,100.00
2019-05-25T20:50:18.313Z,100.00
2019-05-25T20:52:50.868Z,100.00
2019-05-25T20:55:23.444Z,100.00
2019-05-25T20:57:56.302Z,100.00
2019-05-25T21:00:29.746Z,100.00
2019-05-25T21:03:06.367Z,100.00
2019-05-25T21:05:49.605Z,100.00
2019-05-25T21:08:12.845Z,100.00
2019-05-25T21:10:48.484Z,100.00
2019-05-25T21:13:22.316Z,100.00
2019-05-25T21:15:55.882Z,100.00
2019-05-25T21:18:28.359Z,100.00
2019-05-25T21:21:00.917Z,100.00
2019-05-25T21:23:34.861Z,100.00
2019-05-25T21:26:07.662Z,100.00
2019-05-25T21:28:40.497Z,100.00
2019-05-25T21:31:13.330Z,100.00
2019-05-25T21:33:45.294Z,100.00
2019-05-25T21:36:19.770Z,100.00
2019-05-25T21:38:51.866Z,100.00
2019-05-25T21:41:26.315Z,100.00
2019-05-25T21:43:58.901Z,100.00
2019-05-25T21:48:23.709Z,100.00
2019-05-25T21:50:56.538Z,100.00
2019-05-25T21:53:29.264Z,100.00
2019-05-25T21:56:01.321Z,100.00
2019-05-25T21:58:36.881Z,100.00
2019-05-25T22:01:10.311Z,100.00
2019-05-25T22:03:42.666Z,100.00
2019-05-25T22:06:23.876Z,100.00
2019-05-25T22:08:49.586Z,100.00
2019-05-25T22:11:24.856Z,100.00
2019-05-25T22:13:57.552Z,100.00
2019-05-25T22:16:34.167Z,100.00
2019-05-25T22:19:06.702Z,100.00
2019-05-25T22:21:39.283Z,100.00
2019-05-25T22:24:20.293Z,100.00
2019-05-25T22:26:54.703Z,100.00
2019-05-25T22:29:28.291Z,100.00
2019-05-25T22:32:00.975Z,100.00
2019-05-25T22:34:36.343Z,100.00
2019-05-25T22:37:11.452Z,100.00
2019-05-25T22:39:57.586Z,100.00
2019-05-25T22:42:58.826Z,100.00
2019-05-25T22:45:58.901Z,100.00
2019-05-25T22:48:34.672Z,100.00
2019-05-25T22:51:08.989Z,100.00
2019-05-25T22:53:41.878Z,100.00
2019-05-25T22:56:17.338Z,100.00
2019-05-25T22:58:57.653Z,100.00
2019-05-25T23:01:32.126Z,100.00
2019-05-25T23:04:08.525Z,100.00
2019-05-25T23:06:57.156Z,100.00
2019-05-25T23:09:25.700Z,100.00
2019-05-25T23:11:57.301Z,100.00
2019-05-25T23:14:29.824Z,100.00
2019-05-25T23:17:03.014Z,100.00
2019-05-25T23:19:35.867Z,100.00
2019-05-25T23:22:08.507Z,100.00
2019-05-25T23:24:42.523Z,100.00
2019-05-25T23:27:21.420Z,100.00
2019-05-25T23:30:03.298Z,100.00
2019-05-25T23:32:36.050Z,100.00
2019-05-25T23:35:19.299Z,100.00
2019-05-25T23:37:51.685Z,100.00
2019-05-25T23:40:26.291Z,100.00
2019-05-25T23:43:00.773Z,100.00
2019-05-25T23:45:34.355Z,100.00
2019-05-25T23:48:08.587Z,100.00
2019-05-25T23:50:40.878Z,100.00
2019-05-25T23:53:13.356Z,100.00
2019-05-25T23:55:48.410Z,100.00
2019-05-25T23:58:22.381Z,100.00
